createdAt,value
2022-07-28T00:04:34.588Z,0.0
2022-07-28T00:09:21.913Z,0.0
2022-07-28T00:14:28.315Z,0.0
2022-07-28T00:19:54.720Z,0.0
2022-07-28T00:25:05.124Z,0.0
2022-07-28T00:30:11.500Z,0.0
2022-07-28T00:35:15.046Z,0.0
2022-07-28T00:39:50.792Z,0.0
2022-07-28T00:45:07.425Z,0.0
2022-07-28T00:50:03.789Z,0.0
2022-07-28T00:55:24.197Z,0.0
2022-07-28T01:00:26.588Z,0.0
2022-07-28T01:06:10.057Z,0.0
2022-07-28T01:12:29.594Z,0.0
2022-07-28T01:16:24.236Z,0.0
2022-07-28T01:21:31.938Z,0.0
2022-07-28T01:27:12.393Z,0.0
2022-07-28T01:32:19.770Z,0.0
2022-07-28T01:37:26.167Z,0.0
2022-07-28T01:43:00.609Z,0.0
2022-07-28T01:47:29.074Z,0.0
2022-07-28T01:58:40.977Z,0.0
2022-07-28T02:03:48.367Z,0.0
2022-07-28T02:11:47.128Z,0.0
2022-07-28T02:14:01.164Z,0.0
2022-07-28T02:19:07.673Z,0.0
2022-07-28T02:24:19.628Z,0.0
2022-07-28T02:29:48.015Z,0.0
2022-07-28T02:34:32.381Z,0.0
2022-07-28T02:39:34.781Z,0.0
2022-07-28T02:44:41.187Z,0.0
2022-07-28T02:49:47.552Z,0.0
2022-07-28T03:14:13.391Z,0.0
2022-07-28T03:20:19.484Z,4.0
2022-07-28T03:24:25.777Z,12.0
2022-07-28T03:29:32.133Z,28.0
2022-07-28T03:35:28.697Z,56.0
2022-07-28T03:40:36.075Z,92.0
2022-07-28T03:45:42.519Z,144.0
2022-07-28T03:50:38.818Z,200.0
2022-07-28T03:57:07.460Z,260.0
2022-07-28T04:00:51.709Z,332.0
2022-07-28T04:06:08.088Z,420.0
2022-07-28T04:11:38.495Z,528.0
2022-07-28T04:16:49.008Z,664.0
2022-07-28T04:21:47.413Z,848.0
2022-07-28T04:26:23.725Z,1056.0
2022-07-28T04:31:40.127Z,1148.0
2022-07-28T04:36:46.490Z,1352.0
2022-07-28T04:41:42.860Z,1636.0
2022-07-28T04:46:59.254Z,1856.0
2022-07-28T04:52:05.662Z,2152.0
2022-07-28T04:57:05.346Z,2452.0
2022-07-28T05:02:42.434Z,2812.0
2022-07-28T05:08:26.887Z,3232.0
2022-07-28T05:12:31.138Z,3676.0
2022-07-28T05:22:44.095Z,4424.0
2022-07-28T05:28:14.550Z,4644.0
2022-07-28T05:32:56.903Z,4728.0
2022-07-28T05:38:27.337Z,4792.0
2022-07-28T05:44:38.572Z,4808.0
2022-07-28T05:48:43.816Z,4516.0
2022-07-28T05:53:29.169Z,3484.0
2022-07-28T05:58:59.605Z,3340.0
2022-07-28T06:03:42.699Z,3608.0
2022-07-28T06:09:12.372Z,4504.0
2022-07-28T06:17:10.026Z,4596.0
2022-07-28T06:21:05.300Z,4860.0
2022-07-28T06:26:31.877Z,4756.0
2022-07-28T06:31:42.380Z,4980.0
2022-07-28T06:36:24.790Z,4664.0
2022-07-28T06:41:31.285Z,5848.0
2022-07-28T06:46:37.676Z,6036.0
2022-07-28T06:52:04.075Z,6296.0
2022-07-28T06:56:50.436Z,7432.0
2022-07-28T07:01:56.836Z,8664.0
2022-07-28T07:07:03.231Z,8764.0
2022-07-28T07:12:00.041Z,8448.0
2022-07-28T07:17:40.007Z,9172.0
2022-07-28T07:22:46.400Z,9064.0
2022-07-28T07:29:48.985Z,10016.0
2022-07-28T07:32:59.163Z,11572.0
2022-07-28T07:37:31.594Z,8680.0
2022-07-28T07:48:36.192Z,12452.0
2022-07-28T07:54:07.492Z,16960.0
2022-07-28T07:58:53.733Z,19136.0
2022-07-28T08:04:16.693Z,21696.0
2022-07-28T08:09:02.612Z,19264.0
2022-07-28T08:15:21.705Z,21248.0
2022-07-28T08:19:16.082Z,22304.0
2022-07-28T08:24:32.676Z,21920.0
2022-07-28T08:35:29.982Z,26944.0
2022-07-28T08:39:31.894Z,27744.0
2022-07-28T08:44:48.225Z,30752.0
2022-07-28T08:49:54.660Z,32256.0
2022-07-28T08:54:51.131Z,28544.0
2022-07-28T09:00:31.569Z,31584.0
2022-07-28T09:05:13.885Z,34752.0
2022-07-28T09:10:20.320Z,39360.0
2022-07-28T09:15:16.613Z,42656.0
2022-07-28T09:20:36.329Z,33568.0
2022-07-28T09:25:42.638Z,32128.0
2022-07-28T09:30:54.289Z,32192.0
2022-07-28T09:35:56.514Z,46048.0
2022-07-28T09:41:02.923Z,40544.0
2022-07-28T09:46:09.529Z,43520.0
2022-07-28T09:51:16.229Z,49920.0
2022-07-28T09:56:26.891Z,48096.0
2022-07-28T10:01:37.237Z,45248.0
2022-07-28T10:06:59.789Z,55232.0
2022-07-28T10:11:42.147Z,55680.0
2022-07-28T10:17:08.602Z,46816.0
2022-07-28T10:22:55.076Z,57888.0
2022-07-28T10:27:01.361Z,50912.0
2022-07-28T10:32:27.787Z,14128.0
2022-07-28T10:38:26.275Z,63072.0
2022-07-28T10:42:20.540Z,29664.0
2022-07-28T10:47:27.004Z,36480.0
2022-07-28T10:52:47.361Z,62208.0
2022-07-28T10:57:42.345Z,65888.0
2022-07-28T11:02:49.874Z,58880.0
2022-07-28T11:07:56.120Z,64704.0
2022-07-28T11:13:46.835Z,60288.0
2022-07-28T11:18:09.370Z,58560.0
2022-07-28T11:23:15.593Z,56960.0
2022-07-28T11:28:22.093Z,57632.0
2022-07-28T11:33:28.642Z,51744.0
2022-07-28T11:38:35.008Z,53088.0
2022-07-28T11:43:41.427Z,52544.0
2022-07-28T11:49:08.544Z,58336.0
2022-07-28T11:54:18.948Z,58272.0
2022-07-28T11:59:01.297Z,56864.0
2022-07-28T12:04:51.792Z,59424.0
2022-07-28T12:09:41.958Z,62368.0
2022-07-28T12:15:07.146Z,59744.0
2022-07-28T12:20:11.492Z,56096.0
2022-07-28T12:24:53.317Z,55840.0
2022-07-28T12:29:39.679Z,60640.0
2022-07-28T12:35:10.107Z,57696.0
2022-07-28T12:40:52.548Z,50752.0
2022-07-28T12:44:58.816Z,55136.0
2022-07-28T12:50:07.118Z,48224.0
2022-07-28T12:55:31.760Z,40768.0
2022-07-28T13:00:38.147Z,15676.0
2022-07-28T13:12:51.280Z,46496.0
2022-07-28T13:19:14.173Z,45056.0
2022-07-28T13:24:11.823Z,45344.0
2022-07-28T13:29:18.011Z,19904.0
2022-07-28T13:35:18.682Z,22912.0
2022-07-28T13:40:04.824Z,19968.0
2022-07-28T13:44:47.202Z,15132.0
2022-07-28T13:49:53.579Z,19424.0
2022-07-28T13:55:04.190Z,16416.0
2022-07-28T14:00:12.025Z,17568.0
2022-07-28T14:07:07.689Z,19456.0
2022-07-28T14:11:02.900Z,18880.0
2022-07-28T14:16:29.411Z,16160.0
2022-07-28T14:21:19.676Z,14368.0
2022-07-28T14:26:35.613Z,14144.0
2022-07-28T14:31:28.954Z,12048.0
2022-07-28T14:36:39.199Z,12372.0
2022-07-28T14:41:41.574Z,11976.0
2022-07-28T14:47:53.238Z,11844.0
2022-07-28T14:53:04.668Z,10688.0
2022-07-28T14:58:07.029Z,10412.0
2022-07-28T15:03:17.519Z,11532.0
2022-07-28T15:08:43.888Z,10860.0
2022-07-28T15:13:54.244Z,12064.0
2022-07-28T15:18:56.620Z,10272.0
2022-07-28T15:23:39.007Z,10412.0
2022-07-28T15:29:13.495Z,9476.0
2022-07-28T15:33:57.652Z,9104.0
2022-07-28T15:44:38.644Z,8108.0
2022-07-28T15:49:46.055Z,6880.0
2022-07-28T15:54:52.425Z,8268.0
2022-07-28T16:00:22.879Z,8916.0
2022-07-28T16:05:05.209Z,9212.0
2022-07-28T16:10:12.152Z,9628.0
2022-07-28T16:15:22.551Z,9244.0
2022-07-28T16:20:44.970Z,8592.0
2022-07-28T16:25:31.901Z,7324.0
2022-07-28T16:30:28.257Z,7496.0
2022-07-28T16:35:44.656Z,6936.0
2022-07-28T16:41:16.155Z,6620.0
2022-07-28T16:45:47.388Z,6280.0
2022-07-28T16:51:02.785Z,6004.0
2022-07-28T16:57:12.326Z,5696.0
2022-07-28T17:01:06.516Z,5176.0
2022-07-28T17:06:22.951Z,4860.0
2022-07-28T17:11:19.298Z,4604.0
2022-07-28T17:16:34.856Z,4424.0
2022-07-28T17:21:32.076Z,4300.0
2022-07-28T17:31:54.871Z,3496.0
2022-07-28T17:36:51.256Z,3172.0
2022-07-28T17:42:27.701Z,2928.0
2022-07-28T17:48:26.213Z,2700.0
2022-07-28T17:54:00.646Z,2448.0
2022-07-28T17:57:26.827Z,2164.0
2022-07-28T18:02:33.304Z,1972.0
2022-07-28T18:07:49.009Z,1712.0
2022-07-28T18:12:45.986Z,1468.0
2022-07-28T18:17:55.149Z,1216.0
2022-07-28T18:22:58.766Z,1016.0
2022-07-28T18:28:05.159Z,852.0
2022-07-28T18:33:11.580Z,764.0
2022-07-28T18:38:07.930Z,704.0
2022-07-28T18:43:24.386Z,632.0
2022-07-28T18:48:30.773Z,548.0
2022-07-28T18:53:57.203Z,452.0
2022-07-28T19:01:03.865Z,360.0
2022-07-28T19:03:49.965Z,284.0
2022-07-28T19:11:19.839Z,220.0
2022-07-28T19:14:26.797Z,164.0
2022-07-28T19:19:33.168Z,120.0
2022-07-28T19:30:48.864Z,52.0
2022-07-28T19:35:56.146Z,36.0
2022-07-28T19:41:02.530Z,20.0
2022-07-28T19:46:09.062Z,12.0
2022-07-28T19:57:10.259Z,4.0
2022-07-28T20:01:52.456Z,4.0
2022-07-28T20:12:09.908Z,0.0
2022-07-28T20:22:23.562Z,0.0
2022-07-28T20:27:54.985Z,0.0
2022-07-28T20:32:37.358Z,0.0
2022-07-28T20:37:43.712Z,0.0
2022-07-28T20:47:56.545Z,0.0
2022-07-28T20:53:10.361Z,0.0
2022-07-28T20:58:09.320Z,0.0
2022-07-28T21:03:15.692Z,0.0
2022-07-28T21:08:22.098Z,0.0
2022-07-28T21:13:28.508Z,0.0
2022-07-28T21:19:02.934Z,0.0
2022-07-28T21:23:31.228Z,0.0
2022-07-28T21:28:47.650Z,0.0
2022-07-28T21:33:44.002Z,0.0
2022-07-28T21:38:49.391Z,0.0
2022-07-28T21:44:06.793Z,0.0
2022-07-28T21:49:13.299Z,0.0
2022-07-28T21:54:19.751Z,0.0
2022-07-28T21:59:26.029Z,0.0
2022-07-28T22:04:32.485Z,0.0
2022-07-28T22:09:38.789Z,0.0
2022-07-28T22:14:45.172Z,0.0
2022-07-28T22:19:51.714Z,0.0
2022-07-28T22:25:18.137Z,0.0
2022-07-28T22:30:04.485Z,0.0
2022-07-28T22:35:00.837Z,0.0
2022-07-28T22:40:17.244Z,0.0
2022-07-28T22:46:55.788Z,0.0
2022-07-28T22:50:19.986Z,0.0
2022-07-28T22:56:00.427Z,0.0
2022-07-28T23:00:42.926Z,0.0
2022-07-28T23:05:53.179Z,0.0
2022-07-28T23:10:45.513Z,0.0
2022-07-28T23:17:14.078Z,0.0
2022-07-28T23:21:08.330Z,0.0
2022-07-28T23:26:14.711Z,0.0
2022-07-28T23:31:11.163Z,0.0
2022-07-28T23:36:27.301Z,0.0
2022-07-28T23:41:23.849Z,0.0
2022-07-28T23:46:40.418Z,0.0
2022-07-28T23:54:31.034Z,0.0
2022-07-28T23:57:13.146Z,0.0
